< < Back
Terminal Aerodrome Forecast


Current Version              Previous Versions:   1  2  3  4  5  6  7  8  9  

Terminal Aerodrome Forecast

507
FTUS44 KMRX 290535
TAFCHA
TAF
KCHA 290535Z 2906/3006 35005KT P6SM SKC
     FM291700 18008KT P6SM SCT250
     FM300100 19007KT P6SM BKN050 BKN080=

Latest METAR

941
SAUS80 KWBC 291300 RRC
MTRCHA
METAR KCHA 291253Z 00000KT 10SM CLR 00/M05 A3039 RMK AO2 SLP295
T00001050


USA.gov is the U.S. government's official web portal to all federal, state and local government web resources and services.